createdAt,value
2022-11-05T00:01:29.835Z,99796.31
2022-11-05T00:04:50.984Z,99803.03
2022-11-05T00:08:12.621Z,99802.41
2022-11-05T00:11:18.239Z,99819.63
2022-11-05T00:14:40.027Z,99818.16
2022-11-05T00:17:43.609Z,99820.31
2022-11-05T00:20:46.384Z,99823.94
2022-11-05T00:24:07.677Z,99822.31
2022-11-05T00:27:10.899Z,99817.53
2022-11-05T00:30:19.459Z,99813.56
2022-11-05T00:33:22.287Z,99824.78
2022-11-05T00:36:25.073Z,99830.16
2022-11-05T00:39:27.984Z,99824.41
2022-11-05T00:42:49.337Z,99828.69
2022-11-05T00:45:52.180Z,99827.41
2022-11-05T00:49:17.997Z,99823.59
2022-11-05T00:52:39.371Z,99833.31
2022-11-05T00:55:45.104Z,99845.44
2022-11-05T00:58:49.117Z,99845.28
2022-11-05T01:01:52.209Z,99845.16
2022-11-05T01:04:55.283Z,99858.91
2022-11-05T01:07:58.317Z,99855.44
2022-11-05T01:11:12.497Z,99861.19
2022-11-05T01:14:16.469Z,99850.84
2022-11-05T01:17:19.419Z,99855.09
2022-11-05T01:20:22.707Z,99861.06
2022-11-05T01:23:25.576Z,99857.25
2022-11-05T01:26:28.521Z,99849.06
2022-11-05T01:29:31.438Z,99842.66
2022-11-05T01:32:35.778Z,99851.34
2022-11-05T01:35:39.612Z,99853.50
2022-11-05T01:38:42.687Z,99850.72
2022-11-05T01:41:45.472Z,99847.25
2022-11-05T01:45:01.891Z,99867.31
2022-11-05T01:48:34.715Z,99872.37
2022-11-05T01:51:37.642Z,99867.16
2022-11-05T01:54:40.764Z,99865.53
2022-11-05T01:57:43.598Z,99859.59
2022-11-05T02:00:46.534Z,99851.56
2022-11-05T02:03:51.612Z,99855.38
2022-11-05T02:06:54.791Z,99851.09
2022-11-05T02:10:07.825Z,99860.97
2022-11-05T02:13:10.757Z,99864.59
2022-11-05T02:16:30.156Z,99864.94
2022-11-05T02:19:39.125Z,99861.66
2022-11-05T02:23:08.301Z,99874.78
2022-11-05T02:26:36.209Z,99877.41
2022-11-05T02:30:03.929Z,99879.22
2022-11-05T02:33:22.657Z,99885.28
2022-11-05T02:36:47.435Z,99886.75
2022-11-05T02:39:53.741Z,99880.88
2022-11-05T02:43:21.827Z,99876.59
2022-11-05T02:46:43.035Z,99870.53
2022-11-05T02:49:58.377Z,99891.03
2022-11-05T02:53:20.031Z,99891.19
2022-11-05T02:56:35.282Z,99882.16
2022-11-05T02:59:38.205Z,99882.16
2022-11-05T03:02:41.550Z,99890.38
2022-11-05T03:06:00.540Z,99890.56
2022-11-05T03:09:06.305Z,99889.56
2022-11-05T03:12:27.592Z,99879.56
2022-11-05T03:15:40.974Z,99879.09
2022-11-05T03:18:55.103Z,99875.47
2022-11-05T03:22:08.955Z,99872.34
2022-11-05T03:25:16.593Z,99859.88
2022-11-05T03:28:22.541Z,99856.13
2022-11-05T03:31:25.751Z,99862.03
2022-11-05T03:34:32.755Z,99864.00
2022-11-05T03:37:38.135Z,99878.13
2022-11-05T03:40:41.943Z,99871.72
2022-11-05T03:43:48.561Z,99872.69
2022-11-05T03:46:53.448Z,99866.63
2022-11-05T03:50:12.161Z,99868.56
2022-11-05T03:53:18.575Z,99881.06
2022-11-05T03:56:28.139Z,99879.41
2022-11-05T03:59:31.916Z,99886.81
2022-11-05T04:02:35.238Z,99898.97
2022-11-05T04:05:38.081Z,99900.78
2022-11-05T04:08:59.564Z,99906.69
2022-11-05T04:12:20.717Z,99917.19
2022-11-05T04:15:23.644Z,99936.56
2022-11-05T04:18:26.461Z,99938.38
2022-11-05T04:21:47.784Z,99943.16
2022-11-05T04:24:50.567Z,99943.47
2022-11-05T04:27:53.544Z,99947.09
2022-11-05T04:30:56.956Z,99942.19
2022-11-05T04:33:59.855Z,99935.75
2022-11-05T04:37:02.596Z,99940.87
2022-11-05T04:40:06.079Z,99927.06
2022-11-05T04:43:14.714Z,99917.69
2022-11-05T04:46:18.242Z,99916.22
2022-11-05T04:49:21.091Z,99904.41
2022-11-05T04:52:23.895Z,99913.94
2022-11-05T04:55:27.266Z,99908.84
2022-11-05T04:58:30.321Z,99903.59
2022-11-05T05:01:33.285Z,99916.91
2022-11-05T05:04:36.298Z,99924.09
2022-11-05T05:07:39.170Z,99944.47
2022-11-05T05:10:42.284Z,99950.38
2022-11-05T05:13:45.191Z,99953.97
2022-11-05T05:16:48.036Z,99963.66
2022-11-05T05:20:09.670Z,99961.84
2022-11-05T05:23:12.842Z,99961.03
2022-11-05T05:26:16.821Z,99971.22
2022-11-05T05:29:19.836Z,99974.00
2022-11-05T05:32:23.226Z,99971.53
2022-11-05T05:35:25.978Z,99974.34
2022-11-05T05:38:29.865Z,99961.53
2022-11-05T05:41:33.042Z,99956.28
2022-11-05T05:44:35.831Z,99953.81
2022-11-05T05:47:38.926Z,99955.13
2022-11-05T05:50:41.813Z,99955.31
2022-11-05T05:53:44.768Z,99965.16
2022-11-05T05:56:47.628Z,99981.72
2022-11-05T05:59:50.741Z,99978.59
2022-11-05T06:02:56.180Z,99980.25
2022-11-05T06:06:10.375Z,99982.53
2022-11-05T06:09:14.388Z,99986.97
2022-11-05T06:12:17.138Z,99994.34
2022-11-05T06:15:20.624Z,99997.62
2022-11-05T06:18:23.378Z,100012.25
2022-11-05T06:21:26.314Z,100018.47
2022-11-05T06:24:29.155Z,100026.84
2022-11-05T06:27:32.010Z,100018.00
2022-11-05T06:30:35.049Z,100036.72
2022-11-05T06:33:38.374Z,100036.06
2022-11-05T06:36:41.356Z,100038.69
2022-11-05T06:39:44.301Z,100035.75
2022-11-05T06:42:47.501Z,100048.06
2022-11-05T06:45:50.318Z,100048.38
2022-11-05T06:48:53.398Z,100057.72
2022-11-05T06:51:56.446Z,100059.03
2022-11-05T06:55:00.338Z,100060.34
2022-11-05T06:58:05.059Z,100064.94
2022-11-05T07:01:09.974Z,100075.44
2022-11-05T07:04:13.336Z,100077.56
2022-11-05T07:07:16.207Z,100074.25
2022-11-05T07:10:19.393Z,100064.56
2022-11-05T07:13:22.408Z,100073.75
2022-11-05T07:16:25.271Z,100069.28
2022-11-05T07:19:28.358Z,100072.06
2022-11-05T07:22:31.766Z,100069.06
2022-11-05T07:25:35.608Z,100078.28
2022-11-05T07:28:39.560Z,100083.03
2022-11-05T07:31:44.927Z,100082.84
2022-11-05T07:34:50.005Z,100064.53
2022-11-05T07:37:57.905Z,100062.69
2022-11-05T07:41:04.516Z,100066.91
2022-11-05T07:44:09.036Z,100073.94
2022-11-05T07:47:11.938Z,100077.37
2022-11-05T07:50:16.529Z,100074.69
2022-11-05T07:53:21.166Z,100075.16
2022-11-05T07:56:24.156Z,100059.50
2022-11-05T07:59:32.695Z,100055.53
2022-11-05T08:02:39.898Z,100069.34
2022-11-05T08:05:44.962Z,100073.78
2022-11-05T08:08:47.976Z,100074.44
2022-11-05T08:11:53.037Z,100074.37
2022-11-05T08:14:56.201Z,100070.03
2022-11-05T08:18:00.557Z,100077.59
2022-11-05T08:21:05.141Z,100078.41
2022-11-05T08:24:08.309Z,100082.97
2022-11-05T08:27:11.284Z,100088.69
2022-11-05T08:30:15.442Z,100082.91
2022-11-05T08:33:18.751Z,100089.94
2022-11-05T08:36:21.709Z,100081.22
2022-11-05T08:39:25.886Z,100083.78
2022-11-05T08:42:29.001Z,100084.87
2022-11-05T08:45:31.966Z,100086.97
2022-11-05T08:48:38.480Z,100087.94
2022-11-05T08:51:46.479Z,100087.66
2022-11-05T08:54:50.197Z,100077.50
2022-11-05T08:58:00.094Z,100086.25
2022-11-05T09:01:05.583Z,100081.13
2022-11-05T09:04:08.907Z,100085.78
2022-11-05T09:07:15.015Z,100095.44
2022-11-05T09:10:18.887Z,100097.78
2022-11-05T09:13:25.381Z,100109.53
2022-11-05T09:16:30.453Z,100097.78
2022-11-05T09:19:39.795Z,100095.34
2022-11-05T09:22:43.678Z,100092.34
2022-11-05T09:25:47.095Z,100083.84
2022-11-05T09:28:50.309Z,100084.87
2022-11-05T09:31:54.830Z,100072.56
2022-11-05T09:34:57.714Z,100075.56
2022-11-05T09:38:01.350Z,100078.38
2022-11-05T09:41:05.607Z,100069.94
2022-11-05T09:44:22.815Z,100070.31
2022-11-05T09:47:30.634Z,100065.81
2022-11-05T09:50:41.468Z,100075.50
2022-11-05T09:53:45.760Z,100071.84
2022-11-05T09:56:48.545Z,100071.25
2022-11-05T09:59:57.559Z,100062.19
2022-11-05T10:03:16.196Z,100071.69
2022-11-05T10:06:24.296Z,100075.72
2022-11-05T10:09:33.818Z,100070.06
2022-11-05T10:12:42.774Z,100070.81
2022-11-05T10:16:23.213Z,100073.12
2022-11-05T10:19:31.172Z,100096.19
2022-11-05T10:22:34.045Z,100092.16
2022-11-05T10:25:40.007Z,100080.13
2022-11-05T10:28:42.968Z,100082.72
2022-11-05T10:31:45.911Z,100080.81
2022-11-05T10:34:50.199Z,100087.44
2022-11-05T10:37:56.378Z,100090.59
2022-11-05T10:41:29.611Z,100090.47
2022-11-05T10:44:53.759Z,100099.47
2022-11-05T10:48:10.202Z,100106.06
2022-11-05T10:51:13.163Z,100111.59
2022-11-05T10:54:22.590Z,100115.31
2022-11-05T10:57:36.401Z,100112.00
2022-11-05T11:00:39.754Z,100127.03
2022-11-05T11:03:48.493Z,100128.47
2022-11-05T11:06:53.997Z,100121.44
2022-11-05T11:09:57.177Z,100118.59
2022-11-05T11:13:00.254Z,100120.25
2022-11-05T11:16:16.406Z,100121.87
2022-11-05T11:19:39.720Z,100127.91
2022-11-05T11:22:42.531Z,100113.62
2022-11-05T11:25:52.305Z,100128.47
2022-11-05T11:29:36.482Z,100117.41
2022-11-05T11:32:40.478Z,100117.03
2022-11-05T11:35:46.370Z,100140.88
2022-11-05T11:38:49.208Z,100136.91
2022-11-05T11:41:54.665Z,100139.50
2022-11-05T11:44:59.479Z,100133.00
2022-11-05T11:48:06.330Z,100119.47
2022-11-05T11:51:49.765Z,100127.53
2022-11-05T11:54:53.443Z,100140.62
2022-11-05T11:58:07.335Z,100137.56
2022-11-05T12:01:34.130Z,100121.13
2022-11-05T12:05:01.766Z,100117.09
2022-11-05T12:08:45.367Z,100117.03
2022-11-05T12:12:12.495Z,100134.91
2022-11-05T12:15:39.617Z,100134.91
2022-11-05T12:18:49.667Z,100138.56
2022-11-05T12:22:02.734Z,100129.06
2022-11-05T12:25:21.959Z,100138.25
2022-11-05T12:29:17.251Z,100142.28
2022-11-05T12:32:46.103Z,100149.56
2022-11-05T12:36:00.496Z,100157.75
2022-11-05T12:39:06.612Z,100158.41
2022-11-05T12:42:24.401Z,100146.13
2022-11-05T12:45:59.558Z,100146.56
2022-11-05T12:49:31.303Z,100150.22
2022-11-05T12:53:12.042Z,100158.87
2022-11-05T12:56:36.489Z,100160.16
2022-11-05T12:59:55.740Z,100156.31
2022-11-05T13:03:22.832Z,100159.69
2022-11-05T13:06:33.202Z,100161.34
2022-11-05T13:09:42.250Z,100161.88
2022-11-05T13:12:47.144Z,100164.31
2022-11-05T13:16:00.036Z,100171.31
2022-11-05T13:19:08.086Z,100174.69
2022-11-05T13:22:30.714Z,100172.00
2022-11-05T13:25:39.010Z,100182.69
2022-11-05T13:28:58.102Z,100167.66
2022-11-05T13:32:35.729Z,100179.56
2022-11-05T13:35:45.828Z,100186.72
2022-11-05T13:38:59.717Z,100185.47
2022-11-05T13:42:05.743Z,100185.97
2022-11-05T13:45:35.126Z,100187.13
2022-11-05T13:48:56.535Z,100199.78
2022-11-05T13:52:22.219Z,100198.66
2022-11-05T13:55:37.022Z,100195.28
2022-11-05T13:58:52.987Z,100200.16
2022-11-05T14:02:02.108Z,100208.16
2022-11-05T14:05:05.775Z,100221.13
2022-11-05T14:08:11.456Z,100215.16
2022-11-05T14:11:20.534Z,100213.50
2022-11-05T14:14:27.958Z,100221.00
2022-11-05T14:17:55.865Z,100216.59
2022-11-05T14:21:04.037Z,100219.53
2022-11-05T14:24:22.295Z,100230.91
2022-11-05T14:27:37.313Z,100238.59
2022-11-05T14:30:47.532Z,100234.03
2022-11-05T14:34:10.410Z,100239.69
2022-11-05T14:37:21.163Z,100231.69
2022-11-05T14:40:33.356Z,100243.63
2022-11-05T14:43:37.198Z,100239.09
2022-11-05T14:46:42.305Z,100246.72
2022-11-05T14:49:54.714Z,100253.56
2022-11-05T14:53:10.689Z,100248.62
2022-11-05T14:56:15.940Z,100245.25
2022-11-05T14:59:24.936Z,100245.62
2022-11-05T15:02:37.343Z,100249.00
2022-11-05T15:05:50.333Z,100256.00
2022-11-05T15:09:05.827Z,100264.00
2022-11-05T15:12:19.900Z,100271.94
2022-11-05T15:15:28.092Z,100278.41
2022-11-05T15:18:39.180Z,100280.72
2022-11-05T15:21:43.879Z,100279.16
2022-11-05T15:24:49.541Z,100286.25
2022-11-05T15:28:08.351Z,100284.16
2022-11-05T15:31:16.336Z,100285.84
2022-11-05T15:34:23.999Z,100292.31
2022-11-05T15:37:29.014Z,100281.13
2022-11-05T15:40:33.459Z,100288.75
2022-11-05T15:43:36.320Z,100286.62
2022-11-05T15:46:39.390Z,100292.91
2022-11-05T15:49:44.812Z,100294.91
2022-11-05T15:52:54.139Z,100296.91
2022-11-05T15:56:01.094Z,100301.34
2022-11-05T15:59:07.051Z,100301.84
2022-11-05T16:02:24.171Z,100305.66
2022-11-05T16:05:30.736Z,100302.69
2022-11-05T16:08:34.990Z,100308.13
2022-11-05T16:11:40.823Z,100319.69
2022-11-05T16:14:44.493Z,100323.97
2022-11-05T16:17:58.033Z,100320.03
2022-11-05T16:21:08.481Z,100326.94
2022-11-05T16:24:29.080Z,100332.41
2022-11-05T16:27:33.976Z,100326.31
2022-11-05T16:30:38.281Z,100334.38
2022-11-05T16:33:45.809Z,100338.37
2022-11-05T16:36:49.498Z,100331.28
2022-11-05T16:39:54.015Z,100340.38
2022-11-05T16:43:09.696Z,100342.19
2022-11-05T16:46:15.892Z,100347.12
2022-11-05T16:49:19.310Z,100350.09
2022-11-05T16:52:22.821Z,100342.84
2022-11-05T16:55:25.708Z,100353.22
2022-11-05T16:58:29.392Z,100361.47
2022-11-05T17:01:32.981Z,100350.75
2022-11-05T17:04:37.063Z,100363.94
2022-11-05T17:07:43.263Z,100359.66
2022-11-05T17:10:46.911Z,100370.09
2022-11-05T17:13:50.271Z,100369.25
2022-11-05T17:16:53.518Z,100364.16
2022-11-05T17:19:56.894Z,100358.59
2022-11-05T17:23:03.577Z,100366.97
2022-11-05T17:26:11.330Z,100362.69
2022-11-05T17:29:14.758Z,100368.97
2022-11-05T17:32:18.073Z,100368.31
2022-11-05T17:35:21.571Z,100376.56
2022-11-05T17:38:26.111Z,100376.56
2022-11-05T17:41:29.148Z,100374.28
2022-11-05T17:44:32.271Z,100379.72
2022-11-05T17:47:35.563Z,100382.66
2022-11-05T17:50:51.744Z,100380.03
2022-11-05T17:53:54.770Z,100382.84
2022-11-05T17:56:58.997Z,100390.88
2022-11-05T18:00:04.194Z,100397.50
2022-11-05T18:03:07.404Z,100393.37
2022-11-05T18:06:10.727Z,100399.47
2022-11-05T18:09:15.272Z,100395.84
2022-11-05T18:12:22.289Z,100400.31
2022-11-05T18:15:26.487Z,100413.81
2022-11-05T18:18:30.418Z,100413.66
2022-11-05T18:21:34.197Z,100421.56
2022-11-05T18:24:37.384Z,100422.91
2022-11-05T18:27:40.840Z,100413.47
2022-11-05T18:30:44.033Z,100424.38
2022-11-05T18:33:48.504Z,100423.84
2022-11-05T18:36:56.361Z,100433.94
2022-11-05T18:39:59.648Z,100433.59
2022-11-05T18:43:02.701Z,100429.31
2022-11-05T18:46:15.629Z,100439.38
2022-11-05T18:49:30.351Z,100439.53
2022-11-05T18:52:33.963Z,100425.03
2022-11-05T18:55:39.987Z,100440.69
2022-11-05T18:58:43.548Z,100436.59
2022-11-05T19:01:47.867Z,100443.84
2022-11-05T19:05:21.919Z,100442.84
2022-11-05T19:08:16.247Z,100448.13
2022-11-05T19:11:22.089Z,100452.22
2022-11-05T19:14:25.393Z,100467.06
2022-11-05T19:17:29.628Z,100465.91
2022-11-05T19:20:37.834Z,100463.94
2022-11-05T19:23:43.080Z,100471.19
2022-11-05T19:26:47.767Z,100466.75
2022-11-05T19:29:51.006Z,100470.38
2022-11-05T19:32:54.101Z,100473.34
2022-11-05T19:36:01.396Z,100480.75
2022-11-05T19:39:11.589Z,100488.66
2022-11-05T19:42:15.176Z,100488.97
2022-11-05T19:45:45.565Z,100494.41
2022-11-05T19:48:41.934Z,100490.31
2022-11-05T19:51:45.812Z,100504.47
2022-11-05T19:54:49.396Z,100498.88
2022-11-05T19:57:55.157Z,100500.19
2022-11-05T20:00:58.548Z,100506.28
2022-11-05T20:04:03.164Z,100499.69
2022-11-05T20:07:07.743Z,100517.50
2022-11-05T20:10:11.855Z,100509.59
2022-11-05T20:13:19.796Z,100521.59
2022-11-05T20:16:28.901Z,100524.41
2022-11-05T20:19:32.429Z,100527.88
2022-11-05T20:22:35.645Z,100519.63
2022-11-05T20:25:38.935Z,100521.94
2022-11-05T20:28:44.021Z,100522.91
2022-11-05T20:31:46.978Z,100533.16
2022-11-05T20:34:53.377Z,100533.81
2022-11-05T20:37:56.628Z,100533.47
2022-11-05T20:41:08.300Z,100538.59
2022-11-05T20:44:11.160Z,100554.56
2022-11-05T20:47:14.263Z,100552.91
2022-11-05T20:50:17.454Z,100555.37
2022-11-05T20:53:21.048Z,100549.13
2022-11-05T20:56:32.866Z,100561.50
2022-11-05T20:59:35.909Z,100565.78
2022-11-05T21:02:41.736Z,100559.00
2022-11-05T21:05:49.690Z,100558.03
2022-11-05T21:08:54.147Z,100563.31
2022-11-05T21:12:12.627Z,100563.63
2022-11-05T21:15:15.634Z,100571.03
2022-11-05T21:18:24.375Z,100562.81
2022-11-05T21:21:27.544Z,100571.03
2022-11-05T21:24:32.368Z,100565.94
2022-11-05T21:27:36.476Z,100565.94
2022-11-05T21:30:45.840Z,100562.81
2022-11-05T21:33:53.979Z,100567.41
2022-11-05T21:37:01.421Z,100562.47
2022-11-05T21:40:05.186Z,100561.50
2022-11-05T21:43:12.205Z,100566.94
2022-11-05T21:46:15.834Z,100558.69
2022-11-05T21:49:19.550Z,100557.88
2022-11-05T21:52:41.005Z,100557.69
2022-11-05T21:56:02.640Z,100567.25
2022-11-05T21:59:25.132Z,100565.44
2022-11-05T22:02:31.284Z,100562.66
2022-11-05T22:05:34.217Z,100558.53
2022-11-05T22:08:37.186Z,100554.91
2022-11-05T22:11:42.997Z,100559.19
2022-11-05T22:14:46.764Z,100562.81
2022-11-05T22:17:52.698Z,100564.62
2022-11-05T22:20:55.771Z,100558.53
2022-11-05T22:23:58.884Z,100559.50
2022-11-05T22:27:04.633Z,100578.12
2022-11-05T22:30:07.736Z,100561.66
2022-11-05T22:33:11.052Z,100566.44
2022-11-05T22:36:14.018Z,100561.50
2022-11-05T22:39:17.436Z,100565.94
2022-11-05T22:42:21.177Z,100560.84
2022-11-05T22:45:24.259Z,100559.50
2022-11-05T22:48:27.143Z,100561.00
2022-11-05T22:51:32.573Z,100562.81
2022-11-05T22:54:39.259Z,100562.81
2022-11-05T22:57:42.536Z,100560.81
2022-11-05T23:00:45.391Z,100564.44
2022-11-05T23:03:49.641Z,100564.78
2022-11-05T23:07:10.953Z,100566.22
2022-11-05T23:10:32.400Z,100568.56
2022-11-05T23:13:35.535Z,100573.84
2022-11-05T23:16:57.123Z,100568.19
2022-11-05T23:20:11.870Z,100566.37
2022-11-05T23:23:33.345Z,100575.28
2022-11-05T23:26:53.012Z,100577.25
2022-11-05T23:30:00.349Z,100575.44
2022-11-05T23:33:03.023Z,100577.56
2022-11-05T23:36:24.783Z,100570.34
2022-11-05T23:39:30.945Z,100572.16
2022-11-05T23:42:52.336Z,100568.50
2022-11-05T23:45:55.097Z,100572.13
2022-11-05T23:49:01.044Z,100574.78
2022-11-05T23:52:04.096Z,100568.66
2022-11-05T23:55:07.314Z,100566.88
2022-11-05T23:58:11.239Z,100565.87
